createdAt,value
2016-06-24T00:00:40.863Z,0
2016-06-24T00:01:42.881Z,0
2016-06-24T00:02:42.193Z,0
2016-06-24T00:03:41.594Z,0
2016-06-24T00:04:42.231Z,0
2016-06-24T00:05:42.277Z,0
2016-06-24T00:06:41.704Z,0
2016-06-24T00:07:42.316Z,0
2016-06-24T00:08:41.735Z,0
2016-06-24T00:09:42.406Z,0
2016-06-24T00:10:42.434Z,0
2016-06-24T00:11:41.833Z,0
2016-06-24T00:12:41.263Z,0
2016-06-24T00:13:41.905Z,0
2016-06-24T00:14:42.551Z,0
2016-06-24T00:15:42.705Z,0
2016-06-24T00:16:42.810Z,0
2016-06-24T00:17:42.814Z,0
2016-06-24T00:18:41.423Z,0
2016-06-24T00:19:41.485Z,0
2016-06-24T00:20:42.151Z,0
2016-06-24T00:21:42.166Z,0
2016-06-24T00:22:42.208Z,0
2016-06-24T00:23:43.468Z,0
2016-06-24T00:24:42.965Z,0
2016-06-24T00:25:41.673Z,0
2016-06-24T00:26:43.013Z,0
2016-06-24T00:27:41.745Z,0
2016-06-24T00:28:41.734Z,0
2016-06-24T00:29:42.601Z,0
2016-06-24T00:30:41.857Z,0
2016-06-24T00:31:42.628Z,0
2016-06-24T00:32:41.937Z,0
2016-06-24T00:33:43.201Z,0
2016-06-24T00:34:42.821Z,0
2016-06-24T00:35:42.674Z,0
2016-06-24T00:36:43.403Z,0
2016-06-24T00:37:43.426Z,0
2016-06-24T00:38:42.194Z,0
2016-06-24T00:39:42.860Z,0
2016-06-24T00:40:42.867Z,0
2016-06-24T00:41:42.221Z,0
2016-06-24T00:42:42.215Z,0
2016-06-24T00:43:42.922Z,0
2016-06-24T00:44:44.191Z,0
2016-06-24T00:45:43.560Z,0
2016-06-24T00:46:44.209Z,0
2016-06-24T00:47:42.364Z,0
2016-06-24T00:48:43.605Z,0
2016-06-24T00:49:42.412Z,0
2016-06-24T00:50:42.439Z,0
2016-06-24T00:51:42.473Z,0
2016-06-24T00:52:42.613Z,0
2016-06-24T00:53:42.519Z,0
2016-06-24T00:54:43.171Z,0
2016-06-24T00:55:43.832Z,0
2016-06-24T00:56:43.237Z,0
2016-06-24T00:57:43.897Z,0
2016-06-24T00:58:43.945Z,0
2016-06-24T00:59:43.943Z,0
2016-06-24T01:00:43.407Z,0
2016-06-24T01:01:44.039Z,0
2016-06-24T01:02:43.438Z,0
2016-06-24T01:03:42.932Z,0
2016-06-24T01:04:42.275Z,0
2016-06-24T01:05:44.131Z,0
2016-06-24T01:06:43.558Z,0
2016-06-24T01:07:43.583Z,0
2016-06-24T01:08:44.857Z,0
2016-06-24T01:09:43.025Z,0
2016-06-24T01:10:44.288Z,0
2016-06-24T01:11:43.730Z,0
2016-06-24T01:12:43.745Z,0
2016-06-24T01:13:43.750Z,0
2016-06-24T01:14:44.411Z,0
2016-06-24T01:15:42.659Z,0
2016-06-24T01:16:43.833Z,0
2016-06-24T01:17:45.139Z,0
2016-06-24T01:18:43.923Z,0
2016-06-24T01:19:43.333Z,0
2016-06-24T01:20:44.669Z,0
2016-06-24T01:21:44.675Z,0
2016-06-24T01:22:44.051Z,0
2016-06-24T01:23:44.815Z,0
2016-06-24T01:24:44.126Z,0
2016-06-24T01:25:45.457Z,0
2016-06-24T01:26:45.604Z,0
2016-06-24T01:27:43.582Z,0
2016-06-24T01:28:43.602Z,0
2016-06-24T01:29:44.254Z,0
2016-06-24T01:30:45.012Z,0
2016-06-24T01:31:43.091Z,0
2016-06-24T01:32:44.341Z,0
2016-06-24T01:33:43.789Z,0
2016-06-24T01:34:44.413Z,0
2016-06-24T01:35:45.057Z,0
2016-06-24T01:36:44.457Z,0
2016-06-24T01:37:43.266Z,0
2016-06-24T01:38:45.246Z,0
2016-06-24T01:39:45.819Z,0
2016-06-24T01:40:43.970Z,0
2016-06-24T01:41:43.397Z,0
2016-06-24T01:42:44.848Z,0
2016-06-24T01:43:45.326Z,0
2016-06-24T01:44:44.085Z,0
2016-06-24T01:45:44.798Z,0
2016-06-24T01:46:44.915Z,0
2016-06-24T01:47:46.039Z,0
2016-06-24T01:48:44.214Z,0
2016-06-24T01:49:45.564Z,0
2016-06-24T01:50:46.133Z,0
2016-06-24T01:51:46.171Z,0
2016-06-24T01:52:45.651Z,0
2016-06-24T01:53:45.074Z,0
2016-06-24T01:54:45.695Z,0
2016-06-24T01:55:43.814Z,0
2016-06-24T01:56:45.122Z,0
2016-06-24T01:57:45.740Z,0
2016-06-24T01:58:45.758Z,0
2016-06-24T01:59:46.410Z,0
2016-06-24T02:00:45.832Z,0
2016-06-24T02:01:46.485Z,0
2016-06-24T02:02:45.890Z,0
2016-06-24T02:03:45.287Z,0
2016-06-24T02:04:44.090Z,0
2016-06-24T02:05:45.359Z,0
2016-06-24T02:06:44.166Z,0
2016-06-24T02:07:46.034Z,0
2016-06-24T02:08:45.593Z,0
2016-06-24T02:09:46.082Z,0
2016-06-24T02:10:45.518Z,0
2016-06-24T02:11:46.787Z,0
2016-06-24T02:12:44.332Z,0
2016-06-24T02:13:46.231Z,0
2016-06-24T02:14:45.006Z,0
2016-06-24T02:15:46.275Z,0
2016-06-24T02:16:46.322Z,0
2016-06-24T02:17:45.721Z,0
2016-06-24T02:18:45.195Z,0
2016-06-24T02:19:45.166Z,0
2016-06-24T02:20:47.034Z,0
2016-06-24T02:21:46.440Z,0
2016-06-24T02:22:46.458Z,0
2016-06-24T02:23:45.440Z,0
2016-06-24T02:24:46.529Z,0
2016-06-24T02:25:45.957Z,0
2016-06-24T02:26:46.588Z,0
2016-06-24T02:27:46.629Z,0
2016-06-24T02:28:46.683Z,0
2016-06-24T02:29:46.050Z,0
2016-06-24T02:30:46.109Z,0
2016-06-24T02:31:47.456Z,0
2016-06-24T02:32:45.535Z,0
2016-06-24T02:33:46.831Z,0
2016-06-24T02:34:46.843Z,0
2016-06-24T02:35:46.875Z,0
2016-06-24T02:36:46.899Z,0
2016-06-24T02:37:47.538Z,0
2016-06-24T02:38:45.725Z,0
2016-06-24T02:39:45.746Z,0
2016-06-24T02:40:47.024Z,0
2016-06-24T02:41:47.044Z,0
2016-06-24T02:42:45.235Z,0
2016-06-24T02:43:47.101Z,0
2016-06-24T02:44:46.511Z,0
2016-06-24T02:45:47.159Z,0
2016-06-24T02:46:46.555Z,0
2016-06-24T02:47:45.991Z,0
2016-06-24T02:48:47.266Z,0
2016-06-24T02:49:46.745Z,0
2016-06-24T02:50:48.123Z,0
2016-06-24T02:51:47.371Z,0
2016-06-24T02:52:47.383Z,0
2016-06-24T02:53:46.891Z,0
2016-06-24T02:54:47.558Z,0
2016-06-24T02:55:46.840Z,0
2016-06-24T02:56:46.891Z,0
2016-06-24T02:57:45.673Z,0
2016-06-24T02:58:46.960Z,0
2016-06-24T02:59:46.351Z,0
2016-06-24T03:00:48.322Z,0
2016-06-24T03:01:47.097Z,0
2016-06-24T03:02:48.347Z,0
2016-06-24T03:03:47.085Z,0
2016-06-24T03:04:46.506Z,0
2016-06-24T03:05:47.747Z,0
2016-06-24T03:06:45.974Z,0
2016-06-24T03:07:47.194Z,0
2016-06-24T03:08:46.684Z,0
2016-06-24T03:09:46.717Z,0
2016-06-24T03:10:46.858Z,0
2016-06-24T03:11:48.560Z,0
2016-06-24T03:12:48.622Z,0
2016-06-24T03:13:47.997Z,0
2016-06-24T03:14:48.702Z,0
2016-06-24T03:15:46.826Z,0
2016-06-24T03:16:48.717Z,0
2016-06-24T03:17:48.249Z,0
2016-06-24T03:18:47.522Z,0
2016-06-24T03:19:48.181Z,0
2016-06-24T03:20:47.032Z,0
2016-06-24T03:21:47.034Z,0
2016-06-24T03:22:48.263Z,0
2016-06-24T03:23:48.300Z,0
2016-06-24T03:24:47.775Z,0
2016-06-24T03:25:48.344Z,0
2016-06-24T03:26:48.414Z,0
2016-06-24T03:27:47.165Z,0
2016-06-24T03:28:48.420Z,0
2016-06-24T03:29:48.475Z,0
2016-06-24T03:30:47.266Z,0
2016-06-24T03:31:47.469Z,0
2016-06-24T03:32:47.486Z,0
2016-06-24T03:33:47.489Z,0
2016-06-24T03:34:48.614Z,0
2016-06-24T03:35:48.129Z,0
2016-06-24T03:36:48.132Z,0
2016-06-24T03:37:48.102Z,0
2016-06-24T03:38:48.772Z,0
2016-06-24T03:39:47.674Z,0
2016-06-24T03:40:48.819Z,0
2016-06-24T03:41:47.569Z,0
2016-06-24T03:42:48.238Z,0
2016-06-24T03:43:47.631Z,0
2016-06-24T03:44:48.902Z,0
2016-06-24T03:45:49.549Z,0
2016-06-24T03:46:47.741Z,0
2016-06-24T03:47:48.995Z,0
2016-06-24T03:48:49.006Z,0
2016-06-24T03:49:49.043Z,0
2016-06-24T03:50:49.700Z,0
2016-06-24T03:51:48.496Z,0
2016-06-24T03:52:48.528Z,0
2016-06-24T03:53:49.174Z,0
2016-06-24T03:54:49.222Z,0
2016-06-24T03:55:48.627Z,0
2016-06-24T03:56:48.635Z,0
2016-06-24T03:57:49.283Z,0
2016-06-24T03:58:49.321Z,0
2016-06-24T03:59:48.111Z,0
2016-06-24T04:00:48.771Z,0
2016-06-24T04:01:48.788Z,0
2016-06-24T04:02:50.293Z,0
2016-06-24T04:03:50.168Z,0
2016-06-24T04:04:48.260Z,0
2016-06-24T04:05:48.890Z,0
2016-06-24T04:06:49.546Z,0
2016-06-24T04:07:48.353Z,0
2016-06-24T04:08:50.249Z,0
2016-06-24T04:09:49.006Z,0
2016-06-24T04:10:49.057Z,0
2016-06-24T04:11:49.070Z,0
2016-06-24T04:12:49.096Z,0
2016-06-24T04:13:49.111Z,0
2016-06-24T04:14:49.796Z,0
2016-06-24T04:15:49.794Z,0
2016-06-24T04:16:49.841Z,0
2016-06-24T04:17:49.870Z,0
2016-06-24T04:18:48.650Z,0
2016-06-24T04:19:49.299Z,0
2016-06-24T04:20:49.995Z,0
2016-06-24T04:21:50.026Z,0
2016-06-24T04:22:49.363Z,0
2016-06-24T04:23:50.651Z,0
2016-06-24T04:24:50.094Z,0
2016-06-24T04:25:50.085Z,0
2016-06-24T04:26:49.643Z,0
2016-06-24T04:27:50.834Z,0
2016-06-24T04:28:48.334Z,0
2016-06-24T04:29:50.303Z,0
2016-06-24T04:30:49.620Z,0
2016-06-24T04:31:50.449Z,0
2016-06-24T04:32:50.457Z,0
2016-06-24T04:33:51.088Z,0
2016-06-24T04:34:51.088Z,0
2016-06-24T04:35:49.790Z,0
2016-06-24T04:36:49.169Z,0
2016-06-24T04:37:49.811Z,0
2016-06-24T04:38:49.855Z,0
2016-06-24T04:39:50.543Z,0
2016-06-24T04:40:50.550Z,5
2016-06-24T04:41:49.950Z,5
2016-06-24T04:42:49.940Z,5
2016-06-24T04:43:48.739Z,5
2016-06-24T04:44:50.681Z,5
2016-06-24T04:45:49.405Z,5
2016-06-24T04:46:50.709Z,5
2016-06-24T04:47:50.109Z,5
2016-06-24T04:48:48.887Z,5
2016-06-24T04:49:50.770Z,5
2016-06-24T04:50:48.966Z,5
2016-06-24T04:51:49.631Z,5
2016-06-24T04:52:51.481Z,5
2016-06-24T04:53:50.388Z,5
2016-06-24T04:54:50.911Z,5
2016-06-24T04:55:51.018Z,5
2016-06-24T04:56:50.416Z,5
2016-06-24T04:57:51.190Z,5
2016-06-24T04:58:49.190Z,5
2016-06-24T04:59:49.963Z,5
2016-06-24T05:00:51.204Z,5
2016-06-24T05:01:51.779Z,5
2016-06-24T05:02:50.609Z,5
2016-06-24T05:03:50.605Z,5
2016-06-24T05:04:51.239Z,5
2016-06-24T05:05:50.608Z,5
2016-06-24T05:06:51.272Z,5
2016-06-24T05:07:51.419Z,5
2016-06-24T05:08:51.433Z,5
2016-06-24T05:09:52.335Z,5
2016-06-24T05:10:50.749Z,5
2016-06-24T05:11:52.092Z,5
2016-06-24T05:12:50.206Z,5
2016-06-24T05:13:51.517Z,5
2016-06-24T05:14:50.250Z,5
2016-06-24T05:15:52.189Z,5
2016-06-24T05:16:49.706Z,5
2016-06-24T05:17:50.998Z,5
2016-06-24T05:18:50.970Z,5
2016-06-24T05:19:50.383Z,5
2016-06-24T05:20:51.035Z,5
2016-06-24T05:21:51.159Z,5
2016-06-24T05:22:51.117Z,5
2016-06-24T05:23:52.364Z,5
2016-06-24T05:24:51.846Z,5
2016-06-24T05:25:51.809Z,5
2016-06-24T05:26:50.585Z,5
2016-06-24T05:27:52.481Z,5
2016-06-24T05:28:52.509Z,5
2016-06-24T05:29:51.913Z,5
2016-06-24T05:30:52.030Z,5
2016-06-24T05:31:51.563Z,5
2016-06-24T05:32:51.574Z,5
2016-06-24T05:33:52.123Z,5
2016-06-24T05:34:51.522Z,5
2016-06-24T05:35:52.083Z,5
2016-06-24T05:36:52.759Z,5
2016-06-24T05:37:52.804Z,5
2016-06-24T05:38:50.918Z,5
2016-06-24T05:39:52.204Z,5
2016-06-24T05:40:50.982Z,5
2016-06-24T05:41:52.252Z,5
2016-06-24T05:42:51.693Z,5
2016-06-24T05:43:51.710Z,5
2016-06-24T05:44:52.390Z,5
2016-06-24T05:45:52.390Z,5
2016-06-24T05:46:51.989Z,5
2016-06-24T05:47:52.426Z,5
2016-06-24T05:48:51.869Z,5
2016-06-24T05:49:52.507Z,5
2016-06-24T05:50:52.556Z,5
2016-06-24T05:51:51.313Z,5
2016-06-24T05:52:51.442Z,5
2016-06-24T05:53:51.416Z,5
2016-06-24T05:54:52.654Z,5
2016-06-24T05:55:52.040Z,5
2016-06-24T05:56:51.505Z,5
2016-06-24T05:57:51.565Z,5
2016-06-24T05:58:52.818Z,5
2016-06-24T05:59:52.978Z,5
2016-06-24T06:00:52.295Z,5
2016-06-24T06:01:51.689Z,5
2016-06-24T06:02:52.977Z,5
2016-06-24T06:03:52.403Z,5
2016-06-24T06:04:52.520Z,5
2016-06-24T06:05:52.473Z,5
2016-06-24T06:06:52.381Z,5
2016-06-24T06:07:53.135Z,5
2016-06-24T06:08:52.520Z,5
2016-06-24T06:09:52.533Z,5
2016-06-24T06:10:52.491Z,5
2016-06-24T06:11:51.914Z,5
2016-06-24T06:12:53.163Z,5
2016-06-24T06:13:52.593Z,5
2016-06-24T06:14:51.989Z,5
2016-06-24T06:15:52.621Z,5
2016-06-24T06:16:51.504Z,5
2016-06-24T06:17:52.090Z,5
2016-06-24T06:18:52.794Z,5
2016-06-24T06:19:52.335Z,5
2016-06-24T06:20:52.790Z,5
2016-06-24T06:21:52.791Z,5
2016-06-24T06:22:52.994Z,5
2016-06-24T06:23:53.467Z,5
2016-06-24T06:24:53.497Z,5
2016-06-24T06:25:54.307Z,5
2016-06-24T06:26:53.578Z,5
2016-06-24T06:27:54.322Z,5
2016-06-24T06:28:52.999Z,5
2016-06-24T06:29:53.746Z,5
2016-06-24T06:30:53.686Z,5
2016-06-24T06:31:54.381Z,5
2016-06-24T06:32:53.716Z,5
2016-06-24T06:33:53.754Z,5
2016-06-24T06:34:51.923Z,5
2016-06-24T06:35:54.437Z,5
2016-06-24T06:36:53.836Z,5
2016-06-24T06:37:53.175Z,5
2016-06-24T06:38:53.911Z,5
2016-06-24T06:39:53.322Z,5
2016-06-24T06:40:53.345Z,5
2016-06-24T06:41:52.749Z,5
2016-06-24T06:42:53.389Z,5
2016-06-24T06:43:53.438Z,5
2016-06-24T06:44:54.843Z,5
2016-06-24T06:45:54.242Z,5
2016-06-24T06:46:54.238Z,5
2016-06-24T06:47:53.547Z,5
2016-06-24T06:48:54.886Z,5
2016-06-24T06:49:53.596Z,5
2016-06-24T06:50:53.618Z,5
2016-06-24T06:51:55.043Z,5
2016-06-24T06:52:55.042Z,5
2016-06-24T06:53:54.438Z,5
2016-06-24T06:54:55.062Z,5
2016-06-24T06:55:54.479Z,5
2016-06-24T06:56:55.150Z,5
2016-06-24T06:57:53.831Z,5
2016-06-24T06:58:55.099Z,5
2016-06-24T06:59:53.894Z,5
2016-06-24T07:00:53.930Z,5
2016-06-24T07:01:53.938Z,5
2016-06-24T07:02:54.687Z,5
2016-06-24T07:03:54.215Z,5
2016-06-24T07:04:54.236Z,5
2016-06-24T07:05:54.133Z,5
2016-06-24T07:06:54.697Z,5
2016-06-24T07:07:54.287Z,5
2016-06-24T07:08:54.158Z,5
2016-06-24T07:09:54.215Z,5
2016-06-24T07:10:55.490Z,5
2016-06-24T07:11:54.364Z,5
2016-06-24T07:12:55.531Z,5
2016-06-24T07:13:54.371Z,5
2016-06-24T07:14:54.366Z,5
2016-06-24T07:15:54.438Z,5
2016-06-24T07:16:54.482Z,5
2016-06-24T07:17:55.047Z,5
2016-06-24T07:18:54.473Z,5
2016-06-24T07:19:55.733Z,5
2016-06-24T07:20:55.120Z,5
2016-06-24T07:21:53.941Z,5
2016-06-24T07:22:54.574Z,5
2016-06-24T07:23:55.267Z,5
2016-06-24T07:24:55.259Z,5
2016-06-24T07:25:55.290Z,5
2016-06-24T07:26:54.089Z,5
2016-06-24T07:27:55.383Z,5
2016-06-24T07:28:54.745Z,5
2016-06-24T07:29:55.078Z,5
2016-06-24T07:30:54.182Z,5
2016-06-24T07:31:54.836Z,5
2016-06-24T07:32:55.268Z,5
2016-06-24T07:33:56.110Z,5
2016-06-24T07:34:54.922Z,5
2016-06-24T07:35:55.046Z,5
2016-06-24T07:36:55.613Z,5
2016-06-24T07:37:55.646Z,5
2016-06-24T07:38:55.672Z,5
2016-06-24T07:39:55.700Z,5
2016-06-24T07:40:54.513Z,5
2016-06-24T07:41:55.752Z,5
2016-06-24T07:42:54.563Z,5
2016-06-24T07:43:54.595Z,10
2016-06-24T07:44:55.843Z,10
2016-06-24T07:45:55.274Z,10
2016-06-24T07:46:55.298Z,10
2016-06-24T07:47:55.966Z,10
2016-06-24T07:48:56.577Z,10
2016-06-24T07:49:55.378Z,10
2016-06-24T07:50:54.800Z,10
2016-06-24T07:51:55.461Z,10
2016-06-24T07:52:54.874Z,10
2016-06-24T07:53:56.122Z,10
2016-06-24T07:54:55.532Z,10
2016-06-24T07:55:55.542Z,10
2016-06-24T07:56:55.598Z,10
2016-06-24T07:57:55.627Z,10
2016-06-24T07:58:56.298Z,10
2016-06-24T07:59:54.453Z,10
2016-06-24T08:00:57.046Z,10
2016-06-24T08:01:55.742Z,10
2016-06-24T08:02:57.093Z,10
2016-06-24T08:03:55.827Z,10
2016-06-24T08:04:55.843Z,10
2016-06-24T08:05:55.311Z,10
2016-06-24T08:06:54.650Z,10
2016-06-24T08:07:56.548Z,10
2016-06-24T08:08:57.197Z,10
2016-06-24T08:09:55.974Z,10
2016-06-24T08:10:56.650Z,10
2016-06-24T08:11:56.060Z,10
2016-06-24T08:12:55.470Z,10
2016-06-24T08:13:56.150Z,10
2016-06-24T08:14:57.560Z,10
2016-06-24T08:15:55.587Z,10
2016-06-24T08:16:56.952Z,10
2016-06-24T08:17:57.586Z,10
2016-06-24T08:18:56.348Z,10
2016-06-24T08:19:56.971Z,10
2016-06-24T08:20:55.701Z,10
2016-06-24T08:21:55.123Z,10
2016-06-24T08:22:56.458Z,10
2016-06-24T08:23:57.674Z,10
2016-06-24T08:24:57.169Z,10
2016-06-24T08:25:56.579Z,10
2016-06-24T08:26:56.570Z,10
2016-06-24T08:27:56.600Z,10
2016-06-24T08:28:56.603Z,10
2016-06-24T08:29:56.610Z,10
2016-06-24T08:30:57.294Z,10
2016-06-24T08:31:57.969Z,10
2016-06-24T08:32:56.777Z,10
2016-06-24T08:33:57.374Z,10
2016-06-24T08:34:56.841Z,10
2016-06-24T08:35:57.427Z,10
2016-06-24T08:36:58.061Z,10
2016-06-24T08:37:57.484Z,10
2016-06-24T08:38:57.687Z,15
2016-06-24T08:39:57.101Z,15
2016-06-24T08:40:56.343Z,15
2016-06-24T08:41:57.607Z,15
2016-06-24T08:42:57.095Z,15
2016-06-24T08:43:57.040Z,15
2016-06-24T08:44:57.096Z,15
2016-06-24T08:45:57.129Z,15
2016-06-24T08:46:57.772Z,15
2016-06-24T08:47:56.567Z,15
2016-06-24T08:48:57.865Z,15
2016-06-24T08:49:57.260Z,15
2016-06-24T08:50:57.272Z,15
2016-06-24T08:51:58.553Z,15
2016-06-24T08:52:57.369Z,15
2016-06-24T08:53:58.596Z,15
2016-06-24T08:54:58.040Z,15
2016-06-24T08:55:57.441Z,15
2016-06-24T08:56:56.837Z,15
2016-06-24T08:57:57.503Z,15
2016-06-24T08:58:56.918Z,15
2016-06-24T08:59:58.763Z,15
2016-06-24T09:00:56.994Z,15
2016-06-24T09:01:56.429Z,15
2016-06-24T09:02:58.910Z,15
2016-06-24T09:03:57.746Z,15
2016-06-24T09:04:59.084Z,15
2016-06-24T09:05:57.772Z,15
2016-06-24T09:06:57.805Z,15
2016-06-24T09:07:59.128Z,15
2016-06-24T09:08:57.856Z,15
2016-06-24T09:09:57.894Z,15
2016-06-24T09:10:57.925Z,15
2016-06-24T09:11:57.949Z,15
2016-06-24T09:12:58.005Z,15
2016-06-24T09:13:57.430Z,15
2016-06-24T09:14:58.078Z,15
2016-06-24T09:15:58.101Z,15
2016-06-24T09:16:58.147Z,15
2016-06-24T09:17:58.163Z,15
2016-06-24T09:18:59.550Z,15
2016-06-24T09:19:59.583Z,20
2016-06-24T09:20:58.347Z,20
2016-06-24T09:21:59.097Z,20
2016-06-24T09:22:58.340Z,20
2016-06-24T09:23:59.044Z,20
2016-06-24T09:24:59.748Z,20
2016-06-24T09:25:58.538Z,20
2016-06-24T09:26:58.489Z,20
2016-06-24T09:27:58.581Z,20
2016-06-24T09:28:57.980Z,20
2016-06-24T09:29:59.814Z,20
2016-06-24T09:30:59.858Z,20
2016-06-24T09:31:59.362Z,20
2016-06-24T09:32:59.965Z,20
2016-06-24T09:33:58.712Z,20
2016-06-24T09:34:59.003Z,20
2016-06-24T09:35:59.497Z,20
2016-06-24T09:36:58.994Z,20
2016-06-24T09:37:59.009Z,20
2016-06-24T09:38:59.036Z,20
2016-06-24T09:39:59.048Z,20
2016-06-24T09:40:59.642Z,20
2016-06-24T09:41:58.416Z,20
2016-06-24T09:42:59.825Z,20
2016-06-24T09:43:58.577Z,20
2016-06-24T09:44:59.836Z,20
2016-06-24T09:45:59.246Z,20
2016-06-24T09:47:00.450Z,20
2016-06-24T09:47:59.270Z,20
2016-06-24T09:48:59.323Z,20
2016-06-24T09:49:59.963Z,25
2016-06-24T09:50:59.961Z,25
2016-06-24T09:51:58.098Z,25
2016-06-24T09:52:59.371Z,25
2016-06-24T09:54:00.019Z,25
2016-06-24T09:55:00.670Z,25
2016-06-24T09:56:00.083Z,25
2016-06-24T09:56:59.517Z,25
2016-06-24T09:57:58.308Z,25
2016-06-24T09:58:59.579Z,25
2016-06-24T10:00:00.241Z,25
2016-06-24T10:01:00.270Z,25
2016-06-24T10:02:00.323Z,25
2016-06-24T10:02:59.733Z,25
2016-06-24T10:04:00.393Z,25
2016-06-24T10:04:59.840Z,25
2016-06-24T10:06:00.450Z,25
2016-06-24T10:07:01.117Z,25
2016-06-24T10:08:01.265Z,25
2016-06-24T10:09:01.268Z,25
2016-06-24T10:09:59.993Z,25
2016-06-24T10:11:00.648Z,25
2016-06-24T10:11:59.420Z,25
2016-06-24T10:13:00.100Z,25
2016-06-24T10:14:00.756Z,25
2016-06-24T10:14:59.551Z,25
2016-06-24T10:16:00.194Z,25
2016-06-24T10:17:00.838Z,25
2016-06-24T10:18:00.877Z,25
2016-06-24T10:19:00.933Z,25
2016-06-24T10:20:00.342Z,30
2016-06-24T10:21:00.366Z,30
2016-06-24T10:22:01.687Z,30
2016-06-24T10:23:00.470Z,30
2016-06-24T10:24:01.282Z,30
2016-06-24T10:25:00.529Z,30
2016-06-24T10:25:59.935Z,30
2016-06-24T10:27:01.999Z,30
2016-06-24T10:28:01.824Z,30
2016-06-24T10:29:00.682Z,30
2016-06-24T10:30:01.373Z,30
2016-06-24T10:31:00.107Z,30
2016-06-24T10:32:00.863Z,30
2016-06-24T10:33:00.183Z,30
2016-06-24T10:34:00.849Z,30
2016-06-24T10:35:00.871Z,30
2016-06-24T10:36:01.063Z,30
2016-06-24T10:37:01.026Z,30
2016-06-24T10:38:00.392Z,30
2016-06-24T10:39:01.682Z,30
2016-06-24T10:40:01.179Z,30
2016-06-24T10:41:00.498Z,30
2016-06-24T10:41:59.925Z,30
2016-06-24T10:43:02.428Z,30
2016-06-24T10:44:01.827Z,30
2016-06-24T10:45:02.508Z,30
2016-06-24T10:46:01.357Z,30
2016-06-24T10:47:01.996Z,35
2016-06-24T10:48:00.719Z,35
2016-06-24T10:49:01.496Z,35
2016-06-24T10:50:00.214Z,35
2016-06-24T10:51:01.498Z,35
2016-06-24T10:52:01.673Z,35
2016-06-24T10:53:01.643Z,35
2016-06-24T10:54:01.600Z,35
2016-06-24T10:55:01.696Z,35
2016-06-24T10:56:02.314Z,35
2016-06-24T10:57:02.353Z,35
2016-06-24T10:58:02.365Z,35
2016-06-24T10:59:01.233Z,35
2016-06-24T11:00:03.049Z,35
2016-06-24T11:01:02.682Z,35
2016-06-24T11:02:01.990Z,35
2016-06-24T11:03:01.382Z,35
2016-06-24T11:04:02.038Z,35
2016-06-24T11:05:02.657Z,35
2016-06-24T11:06:02.711Z,35
2016-06-24T11:07:02.717Z,35
2016-06-24T11:08:02.134Z,35
2016-06-24T11:09:02.770Z,35
2016-06-24T11:10:02.190Z,35
2016-06-24T11:11:02.868Z,35
2016-06-24T11:12:02.281Z,40
2016-06-24T11:13:02.931Z,40
2016-06-24T11:14:01.833Z,40
2016-06-24T11:15:02.415Z,40
2016-06-24T11:16:01.805Z,40
2016-06-24T11:17:03.086Z,40
2016-06-24T11:18:01.974Z,40
2016-06-24T11:19:01.913Z,40
2016-06-24T11:20:01.957Z,40
2016-06-24T11:21:03.953Z,40
2016-06-24T11:22:03.976Z,45
2016-06-24T11:23:03.331Z,45
2016-06-24T11:24:03.998Z,45
2016-06-24T11:25:02.752Z,45
2016-06-24T11:26:02.183Z,45
2016-06-24T11:27:02.854Z,45
2016-06-24T11:28:03.502Z,45
2016-06-24T11:29:03.539Z,45
2016-06-24T11:30:02.329Z,45
2016-06-24T11:31:03.005Z,45
2016-06-24T11:32:03.782Z,45
2016-06-24T11:33:03.801Z,45
2016-06-24T11:34:02.530Z,45
2016-06-24T11:35:02.538Z,45
2016-06-24T11:36:03.208Z,45
2016-06-24T11:37:03.239Z,45
2016-06-24T11:38:03.291Z,45
2016-06-24T11:39:03.499Z,45
2016-06-24T11:40:04.919Z,45
2016-06-24T11:41:02.770Z,50
2016-06-24T11:42:04.661Z,50
2016-06-24T11:43:02.851Z,50
2016-06-24T11:44:05.030Z,50
2016-06-24T11:45:05.086Z,50
2016-06-24T11:46:04.787Z,50
2016-06-24T11:47:04.652Z,50
2016-06-24T11:48:03.754Z,50
2016-06-24T11:49:03.893Z,50
2016-06-24T11:50:04.977Z,50
2016-06-24T11:51:05.022Z,50
2016-06-24T11:52:04.457Z,50
2016-06-24T11:53:02.620Z,50
2016-06-24T11:54:03.996Z,50
2016-06-24T11:55:04.744Z,50
2016-06-24T11:56:04.745Z,55
2016-06-24T11:57:05.284Z,55
2016-06-24T11:58:04.138Z,55
2016-06-24T11:59:05.377Z,55
2016-06-24T12:00:04.791Z,55
2016-06-24T12:01:04.183Z,55
2016-06-24T12:02:04.840Z,55
2016-06-24T12:03:03.111Z,55
2016-06-24T12:04:03.756Z,55
2016-06-24T12:05:04.353Z,55
2016-06-24T12:06:03.950Z,55
2016-06-24T12:07:05.061Z,55
2016-06-24T12:08:04.453Z,55
2016-06-24T12:09:05.154Z,55
2016-06-24T12:10:04.016Z,55
2016-06-24T12:11:04.595Z,55
2016-06-24T12:12:05.244Z,60
2016-06-24T12:13:05.892Z,60
2016-06-24T12:14:05.320Z,60
2016-06-24T12:15:05.367Z,60
2016-06-24T12:16:04.169Z,60
2016-06-24T12:17:05.446Z,60
2016-06-24T12:18:06.091Z,60
2016-06-24T12:19:04.290Z,60
2016-06-24T12:20:05.582Z,60
2016-06-24T12:21:04.993Z,60
2016-06-24T12:22:05.654Z,60
2016-06-24T12:23:04.439Z,60
2016-06-24T12:24:04.473Z,60
2016-06-24T12:25:05.142Z,65
2016-06-24T12:26:05.824Z,65
2016-06-24T12:27:05.228Z,65
2016-06-24T12:28:05.331Z,65
2016-06-24T12:29:05.924Z,65
2016-06-24T12:30:04.730Z,65
2016-06-24T12:31:06.742Z,65
2016-06-24T12:32:06.070Z,65
2016-06-24T12:33:06.152Z,65
2016-06-24T12:34:06.777Z,65
2016-06-24T12:35:05.532Z,65
2016-06-24T12:36:05.606Z,65
2016-06-24T12:37:05.650Z,65
2016-06-24T12:38:05.672Z,70
2016-06-24T12:39:05.746Z,70
2016-06-24T12:40:06.368Z,70
2016-06-24T12:41:05.276Z,70
2016-06-24T12:42:06.662Z,70
2016-06-24T12:43:06.698Z,70
2016-06-24T12:44:05.927Z,70
2016-06-24T12:45:05.960Z,70
2016-06-24T12:46:05.383Z,70
2016-06-24T12:47:05.535Z,70
2016-06-24T12:48:06.154Z,70
2016-06-24T12:49:06.806Z,70
2016-06-24T12:50:05.560Z,70
2016-06-24T12:51:06.303Z,75
2016-06-24T12:52:06.318Z,75
2016-06-24T12:53:06.903Z,75
2016-06-24T12:54:06.346Z,75
2016-06-24T12:55:07.085Z,75
2016-06-24T12:56:07.047Z,75
2016-06-24T12:57:06.062Z,75
2016-06-24T12:58:07.727Z,75
2016-06-24T12:59:06.090Z,75
2016-06-24T13:00:07.382Z,75
2016-06-24T13:01:07.263Z,75
2016-06-24T13:02:07.275Z,75
2016-06-24T13:03:07.388Z,75
2016-06-24T13:04:07.964Z,75
2016-06-24T13:05:06.777Z,75
2016-06-24T13:06:06.918Z,75
2016-06-24T13:07:07.508Z,75
2016-06-24T13:08:07.564Z,75
2016-06-24T13:09:07.574Z,75
2016-06-24T13:10:07.623Z,75
2016-06-24T13:11:07.658Z,75
2016-06-24T13:12:08.318Z,80
2016-06-24T13:13:07.737Z,80
2016-06-24T13:14:06.530Z,80
2016-06-24T13:15:07.229Z,80
2016-06-24T13:16:07.268Z,80
2016-06-24T13:17:07.915Z,80
2016-06-24T13:18:06.104Z,80
2016-06-24T13:19:06.767Z,80
2016-06-24T13:20:07.426Z,80
2016-06-24T13:21:07.466Z,80
2016-06-24T13:22:07.543Z,80
2016-06-24T13:23:06.923Z,80
2016-06-24T13:24:08.203Z,80
2016-06-24T13:25:07.024Z,80
2016-06-24T13:26:07.660Z,80
2016-06-24T13:27:08.341Z,80
2016-06-24T13:28:08.613Z,80
2016-06-24T13:29:07.796Z,80
2016-06-24T13:30:07.217Z,80
2016-06-24T13:31:07.245Z,80
2016-06-24T13:32:08.781Z,80
2016-06-24T13:33:08.776Z,80
2016-06-24T13:34:08.742Z,80
2016-06-24T13:35:08.070Z,80
2016-06-24T13:36:08.104Z,80
2016-06-24T13:37:08.253Z,80
2016-06-24T13:38:08.286Z,80
2016-06-24T13:39:08.940Z,80
2016-06-24T13:40:07.015Z,80
2016-06-24T13:41:07.699Z,80
2016-06-24T13:42:09.077Z,85
2016-06-24T13:43:07.803Z,85
2016-06-24T13:44:09.114Z,80
2016-06-24T13:45:08.614Z,80
2016-06-24T13:46:08.614Z,80
2016-06-24T13:47:09.857Z,85
2016-06-24T13:48:08.226Z,80
2016-06-24T13:49:09.493Z,80
2016-06-24T13:50:10.077Z,80
2016-06-24T13:51:09.507Z,80
2016-06-24T13:52:10.155Z,80
2016-06-24T13:53:08.936Z,80
2016-06-24T13:54:08.945Z,80
2016-06-24T13:55:08.359Z,80
2016-06-24T13:56:09.092Z,80
2016-06-24T13:57:09.101Z,80
2016-06-24T13:58:09.106Z,80
2016-06-24T13:59:09.690Z,80
2016-06-24T14:00:09.156Z,80
2016-06-24T14:01:10.398Z,80
2016-06-24T14:02:10.445Z,80
2016-06-24T14:03:08.715Z,80
2016-06-24T14:04:09.288Z,80
2016-06-24T14:05:09.339Z,80
2016-06-24T14:06:09.995Z,80
2016-06-24T14:07:09.409Z,80
2016-06-24T14:08:10.078Z,80
2016-06-24T14:09:10.158Z,80
2016-06-24T14:10:10.146Z,80
2016-06-24T14:11:10.436Z,80
2016-06-24T14:12:09.009Z,80
2016-06-24T14:13:10.299Z,80
2016-06-24T14:14:10.381Z,80
2016-06-24T14:15:09.137Z,85
2016-06-24T14:16:09.791Z,80
2016-06-24T14:17:09.849Z,80
2016-06-24T14:18:09.895Z,80
2016-06-24T14:19:11.170Z,85
2016-06-24T14:20:09.981Z,85
2016-06-24T14:21:10.668Z,85
2016-06-24T14:22:10.053Z,85
2016-06-24T14:23:10.845Z,85
2016-06-24T14:24:10.852Z,80
2016-06-24T14:25:10.201Z,80
2016-06-24T14:26:10.244Z,80
2016-06-24T14:27:10.288Z,80
2016-06-24T14:28:10.310Z,85
2016-06-24T14:29:10.364Z,85
2016-06-24T14:30:11.123Z,85
2016-06-24T14:31:11.187Z,80
2016-06-24T14:32:10.514Z,85
2016-06-24T14:33:09.915Z,85